createdAt,value
2022-09-05T00:02:49.845Z,22.80
2022-09-05T00:06:19.258Z,20.10
2022-09-05T00:09:58.509Z,21.70
2022-09-05T00:13:07.831Z,20.20
2022-09-05T00:16:35.817Z,20.60
2022-09-05T00:24:17.619Z,20.10
2022-09-05T00:24:29.712Z,20.10
2022-09-05T00:27:43.854Z,20.10
2022-09-05T00:31:55.941Z,21.20
2022-09-05T00:35:03.734Z,20.20
2022-09-05T00:38:16.959Z,20.00
2022-09-05T00:41:18.918Z,21.10
2022-09-05T00:44:25.091Z,21.60
2022-09-05T00:48:06.231Z,21.60
2022-09-05T00:51:21.367Z,19.40
2022-09-05T00:54:42.200Z,19.20
2022-09-05T00:58:14.166Z,21.40
2022-09-05T01:01:42.244Z,20.00
2022-09-05T01:05:18.214Z,19.40
2022-09-05T01:09:09.681Z,18.00
2022-09-05T01:12:30.842Z,19.50
2022-09-05T01:15:49.664Z,20.60
2022-09-05T01:18:57.469Z,19.40
2022-09-05T01:22:27.677Z,21.90
2022-09-05T01:25:34.752Z,19.30
2022-09-05T01:29:16.408Z,21.60
2022-09-05T01:32:25.738Z,21.10
2022-09-05T01:36:03.321Z,19.60
2022-09-05T01:40:10.549Z,19.80
2022-09-05T01:43:57.200Z,19.60
2022-09-05T01:47:21.142Z,19.50
2022-09-05T01:51:06.749Z,19.80
2022-09-05T01:54:47.811Z,19.40
2022-09-05T01:58:14.727Z,18.60
2022-09-05T02:01:32.892Z,19.10
2022-09-05T02:05:11.492Z,20.70
2022-09-05T02:08:24.302Z,19.20
2022-09-05T02:11:51.881Z,18.90
2022-09-05T02:15:04.253Z,18.70
2022-09-05T02:18:23.598Z,19.90
2022-09-05T02:21:40.687Z,18.30
2022-09-05T02:25:40.286Z,19.20
2022-09-05T02:28:51.682Z,20.30
2022-09-05T02:32:01.197Z,18.70
2022-09-05T02:35:13.888Z,20.20
2022-09-05T02:43:38.290Z,18.60
2022-09-05T02:45:19.717Z,18.50
2022-09-05T02:46:26.490Z,18.20
2022-09-05T02:53:30.130Z,18.10
2022-09-05T02:57:28.763Z,18.30
2022-09-05T02:57:40.450Z,17.40
2022-09-05T03:00:15.520Z,18.60
2022-09-05T03:03:46.663Z,18.40
2022-09-05T03:07:27.142Z,18.20
2022-09-05T03:11:01.043Z,18.50
2022-09-05T03:14:36.866Z,18.50
2022-09-05T03:17:44.522Z,18.30
2022-09-05T03:21:15.639Z,18.30
2022-09-05T03:24:39.107Z,18.10
2022-09-05T03:28:07.906Z,18.60
2022-09-05T03:31:24.928Z,18.20
2022-09-05T03:35:18.621Z,19.10
2022-09-05T03:38:43.349Z,19.10
2022-09-05T03:42:03.385Z,18.10
2022-09-05T03:45:37.265Z,18.20
2022-09-05T03:48:48.659Z,18.20
2022-09-05T03:57:14.577Z,20.10
2022-09-05T03:57:25.423Z,18.10
2022-09-05T03:59:42.104Z,18.60
2022-09-05T04:08:07.378Z,18.30
2022-09-05T04:08:16.804Z,18.20
2022-09-05T04:10:43.964Z,17.90
2022-09-05T04:14:02.609Z,18.70
2022-09-05T04:17:17.984Z,18.20
2022-09-05T04:20:32.267Z,19.90
2022-09-05T04:23:45.303Z,20.40
2022-09-05T04:26:54.961Z,21.20
2022-09-05T04:30:37.918Z,19.30
2022-09-05T04:34:02.197Z,18.10
2022-09-05T04:37:07.537Z,18.00
2022-09-05T04:40:56.697Z,19.70
2022-09-05T04:44:08.723Z,18.00
2022-09-05T04:47:14.848Z,17.80
2022-09-05T04:50:23.702Z,17.70
2022-09-05T04:53:31.598Z,17.00
2022-09-05T04:56:42.846Z,20.30
2022-09-05T05:00:33.865Z,18.00
2022-09-05T05:06:11.537Z,17.90
2022-09-05T05:07:40.540Z,17.70
2022-09-05T05:12:44.410Z,18.10
2022-09-05T05:18:09.410Z,19.40
2022-09-05T05:18:39.325Z,17.90
2022-09-05T05:21:50.649Z,18.00
2022-09-05T05:24:56.688Z,17.80
2022-09-05T05:28:24.887Z,19.20
2022-09-05T05:31:55.877Z,18.10
2022-09-05T05:35:03.513Z,17.90
2022-09-05T05:38:17.224Z,19.40
2022-09-05T05:41:36.444Z,17.80
2022-09-05T05:44:47.637Z,16.00
2022-09-05T05:47:56.230Z,18.40
2022-09-05T05:51:12.435Z,18.10
2022-09-05T05:54:37.240Z,18.10
2022-09-05T05:58:03.359Z,17.60
2022-09-05T06:01:37.604Z,17.70
2022-09-05T06:04:52.680Z,18.30
2022-09-05T06:12:05.604Z,17.90
2022-09-05T06:14:59.172Z,17.70
2022-09-05T06:16:13.874Z,17.70
2022-09-05T06:19:43.611Z,18.10
2022-09-05T06:23:10.620Z,18.10
2022-09-05T06:26:56.536Z,18.20
2022-09-05T06:30:19.329Z,19.70
2022-09-05T06:33:49.093Z,18.20
2022-09-05T06:55:10.364Z,19.00
2022-09-05T06:58:30.645Z,19.40
2022-09-05T07:01:55.223Z,17.80
2022-09-05T07:05:37.354Z,20.20
2022-09-05T07:08:45.402Z,19.90
2022-09-05T07:11:46.975Z,20.50
2022-09-05T07:15:27.731Z,20.60
2022-09-05T07:18:37.437Z,21.10
2022-09-05T07:21:51.906Z,22.00
2022-09-05T07:24:56.599Z,20.70
2022-09-05T07:28:26.804Z,19.10
2022-09-05T07:31:37.535Z,21.20
2022-09-05T07:34:41.210Z,24.00
2022-09-05T07:37:49.098Z,23.90
2022-09-05T07:41:01.027Z,24.50
2022-09-05T07:44:15.125Z,24.60
2022-09-05T07:47:30.390Z,22.90
2022-09-05T07:54:45.303Z,22.30
2022-09-05T07:56:59.386Z,22.70
2022-09-05T07:57:50.953Z,24.20
2022-09-05T08:00:58.471Z,23.20
2022-09-05T08:04:05.638Z,23.90
2022-09-05T08:07:47.325Z,25.00
2022-09-05T08:11:22.289Z,23.10
2022-09-05T08:14:44.315Z,25.20
2022-09-05T08:18:30.807Z,25.70
2022-09-05T08:21:55.627Z,23.70
2022-09-05T08:25:13.595Z,23.40
2022-09-05T08:28:44.327Z,22.80
2022-09-05T08:31:55.601Z,23.50
2022-09-05T08:35:10.933Z,25.60
2022-09-05T08:38:14.998Z,23.70
2022-09-05T08:41:51.194Z,25.40
2022-09-05T08:46:43.072Z,26.50
2022-09-05T08:48:58.361Z,23.80
2022-09-05T08:52:28.758Z,26.00
2022-09-05T08:56:10.447Z,24.10
2022-09-05T08:59:32.142Z,23.20
2022-09-05T09:02:56.978Z,24.60
2022-09-05T09:07:09.478Z,24.10
2022-09-05T09:10:38.826Z,24.40
2022-09-05T09:14:29.483Z,24.50
2022-09-05T09:17:45.444Z,24.80
2022-09-05T09:20:48.388Z,24.30
2022-09-05T09:24:06.417Z,26.30
2022-09-05T09:28:46.494Z,24.80
2022-09-05T09:31:15.667Z,26.90
2022-09-05T09:34:40.036Z,25.40
2022-09-05T09:38:34.535Z,27.00
2022-09-05T09:41:45.202Z,29.10
2022-09-05T09:45:27.925Z,33.30
2022-09-05T09:49:05.156Z,31.70
2022-09-05T09:52:53.636Z,30.90
2022-09-05T09:56:24.031Z,29.60
2022-09-05T09:59:54.410Z,30.40
2022-09-05T10:06:45.329Z,27.80
2022-09-05T10:10:53.338Z,27.30
2022-09-05T10:11:22.544Z,27.30
2022-09-05T10:14:49.287Z,27.10
2022-09-05T10:17:55.578Z,26.80
2022-09-05T10:21:32.440Z,28.70
2022-09-05T10:25:19.629Z,27.40
2022-09-05T10:28:37.597Z,27.00
2022-09-05T10:33:58.322Z,29.20
2022-09-05T10:35:37.510Z,26.90
2022-09-05T10:38:52.701Z,28.50
2022-09-05T10:42:10.900Z,27.80
2022-09-05T10:45:33.469Z,26.90
2022-09-05T10:49:01.953Z,27.20
2022-09-05T10:52:41.945Z,27.30
2022-09-05T10:56:11.078Z,27.10
2022-09-05T11:02:18.774Z,27.40
2022-09-05T11:03:23.021Z,27.00
2022-09-05T11:06:45.050Z,29.40
2022-09-05T11:10:17.653Z,29.30
2022-09-05T11:13:46.438Z,27.20
2022-09-05T11:16:58.761Z,27.40
2022-09-05T11:20:06.343Z,27.40
2022-09-05T11:23:52.969Z,27.30
2022-09-05T11:27:24.239Z,27.50
2022-09-05T11:30:38.149Z,27.20
2022-09-05T11:39:53.713Z,30.00
2022-09-05T11:39:59.730Z,27.60
2022-09-05T11:41:51.660Z,27.40
2022-09-05T11:45:11.873Z,29.80
2022-09-05T11:48:16.471Z,27.40
2022-09-05T11:51:41.103Z,28.10
2022-09-05T11:55:20.700Z,27.80
2022-09-05T11:58:45.846Z,27.50
2022-09-05T12:02:17.039Z,29.60
2022-09-05T12:05:59.296Z,27.40
2022-09-05T12:09:47.925Z,27.90
2022-09-05T12:13:21.875Z,27.70
2022-09-05T12:16:46.003Z,27.90
2022-09-05T12:20:16.996Z,28.00
2022-09-05T12:24:01.605Z,27.80
2022-09-05T12:27:38.282Z,30.30
2022-09-05T12:30:57.080Z,28.20
2022-09-05T12:36:11.941Z,29.20
2022-09-05T12:40:03.100Z,30.90
2022-09-05T12:41:38.675Z,30.50
2022-09-05T12:44:45.159Z,31.70
2022-09-05T12:47:58.068Z,28.70
2022-09-05T12:51:46.222Z,28.50
2022-09-05T12:54:57.047Z,30.60
2022-09-05T13:02:56.639Z,29.70
2022-09-05T13:03:09.840Z,31.00
2022-09-05T13:05:19.544Z,29.00
2022-09-05T13:08:25.688Z,26.90
2022-09-05T13:14:48.291Z,31.60
2022-09-05T13:15:21.988Z,31.00
2022-09-05T13:18:37.309Z,29.20
2022-09-05T13:21:45.443Z,31.00
2022-09-05T13:24:58.798Z,29.10
2022-09-05T13:28:06.564Z,31.60
2022-09-05T13:37:55.051Z,29.10
2022-09-05T13:38:05.480Z,30.40
2022-09-05T13:38:54.983Z,28.60
2022-09-05T13:42:03.505Z,28.90
2022-09-05T13:45:08.709Z,29.90
2022-09-05T13:49:23.923Z,28.80
2022-09-05T13:52:00.995Z,28.80
2022-09-05T13:55:34.668Z,29.80
2022-09-05T13:58:56.545Z,28.40
2022-09-05T14:02:26.466Z,28.30
2022-09-05T14:05:46.024Z,28.20
2022-09-05T14:12:49.094Z,28.60
2022-09-05T14:15:59.169Z,28.80
2022-09-05T14:19:19.729Z,28.00
2022-09-05T14:22:44.250Z,29.40
2022-09-05T14:26:03.321Z,29.30
2022-09-05T14:29:17.096Z,29.90
2022-09-05T14:37:39.269Z,29.10
2022-09-05T14:37:58.441Z,30.80
2022-09-05T14:39:31.636Z,30.40
2022-09-05T14:42:57.736Z,28.50
2022-09-05T14:46:21.652Z,28.60
2022-09-05T14:49:49.313Z,29.20
2022-09-05T15:02:26.289Z,28.20
2022-09-05T15:02:48.284Z,28.80
2022-09-05T15:05:11.434Z,28.80
2022-09-05T15:11:24.011Z,31.80
2022-09-05T15:12:23.794Z,30.50
2022-09-05T15:15:03.541Z,31.60
2022-09-05T15:18:14.086Z,29.90
2022-09-05T15:21:34.106Z,29.50
2022-09-05T15:24:36.873Z,29.20
2022-09-05T15:27:38.576Z,29.20
2022-09-05T15:30:56.018Z,30.00
2022-09-05T15:34:26.256Z,30.60
2022-09-05T15:37:43.542Z,28.60
2022-09-05T15:40:45.318Z,30.30
2022-09-05T15:44:09.609Z,28.10
2022-09-05T15:47:17.391Z,28.20
2022-09-05T15:50:22.694Z,28.10
2022-09-05T15:53:28.872Z,29.70
2022-09-05T15:56:30.737Z,27.90
2022-09-05T15:59:48.873Z,30.30
2022-09-05T16:03:08.744Z,28.00
2022-09-05T16:10:37.267Z,30.00
2022-09-05T16:10:45.159Z,29.90
2022-09-05T16:13:17.405Z,27.80
2022-09-05T16:21:13.003Z,27.30
2022-09-05T16:23:18.642Z,29.10
2022-09-05T16:23:52.100Z,29.20
2022-09-05T16:26:56.003Z,27.30
2022-09-05T16:29:57.790Z,29.80
2022-09-05T16:33:19.818Z,27.90
2022-09-05T16:36:38.866Z,27.20
2022-09-05T16:39:54.085Z,27.00
2022-09-05T16:43:04.811Z,26.70
2022-09-05T16:46:27.165Z,27.10
2022-09-05T16:49:41.983Z,28.50
2022-09-05T16:52:53.641Z,27.60
2022-09-05T16:56:05.410Z,26.60
2022-09-05T16:59:23.666Z,29.00
2022-09-05T17:02:51.169Z,26.30
2022-09-05T17:06:01.317Z,27.90
2022-09-05T17:09:18.493Z,27.10
2022-09-05T17:12:29.741Z,25.70
2022-09-05T17:15:35.967Z,26.00
2022-09-05T17:18:38.502Z,27.30
2022-09-05T17:22:49.710Z,26.00
2022-09-05T17:29:24.244Z,27.10
2022-09-05T17:29:33.145Z,25.10
2022-09-05T17:32:20.190Z,25.60
2022-09-05T17:35:43.802Z,27.90
2022-09-05T17:39:03.536Z,25.30
2022-09-05T17:42:28.750Z,24.80
2022-09-05T17:46:13.222Z,24.90
2022-09-05T17:49:40.386Z,25.10
2022-09-05T17:53:25.336Z,24.50
2022-09-05T17:56:48.380Z,25.60
2022-09-05T17:59:51.577Z,26.10
2022-09-05T18:02:56.605Z,26.20
2022-09-05T18:06:03.594Z,26.20
2022-09-05T18:09:37.236Z,25.20
2022-09-05T18:16:11.156Z,24.50
2022-09-05T18:23:18.117Z,26.30
2022-09-05T18:26:23.747Z,24.20
2022-09-05T18:29:58.729Z,24.80
2022-09-05T18:33:53.294Z,26.90
2022-09-05T18:36:25.459Z,26.30
2022-09-05T18:39:27.766Z,24.10
2022-09-05T18:42:34.365Z,25.30
2022-09-05T18:45:38.371Z,25.00
2022-09-05T18:49:56.543Z,26.50
2022-09-05T18:52:29.813Z,25.10
2022-09-05T18:56:14.317Z,23.90
2022-09-05T18:59:15.350Z,26.00
2022-09-05T19:02:50.261Z,23.70
2022-09-05T19:06:37.232Z,26.30
2022-09-05T19:09:33.269Z,23.70
2022-09-05T19:12:53.244Z,24.90
2022-09-05T19:16:33.136Z,26.40
2022-09-05T19:19:26.291Z,25.40
2022-09-05T19:23:10.154Z,25.60
2022-09-05T19:26:14.166Z,25.40
2022-09-05T19:36:49.525Z,26.10
2022-09-05T19:36:58.910Z,25.70
2022-09-05T19:37:02.706Z,23.60
2022-09-05T19:46:22.420Z,23.50
2022-09-05T19:47:42.048Z,25.60
2022-09-05T19:47:43.634Z,25.60
2022-09-05T19:50:11.149Z,25.70
2022-09-05T19:53:19.238Z,23.70
2022-09-05T19:56:23.307Z,25.60
2022-09-05T19:59:34.024Z,25.20
2022-09-05T20:02:37.699Z,23.40
2022-09-05T20:05:41.120Z,23.30
2022-09-05T20:08:42.851Z,25.60
2022-09-05T20:11:49.958Z,22.90
2022-09-05T20:14:51.761Z,23.50
2022-09-05T20:17:54.947Z,25.40
2022-09-05T20:21:06.817Z,23.10
2022-09-05T20:24:08.865Z,23.40
2022-09-05T20:27:11.526Z,22.90
2022-09-05T20:30:25.230Z,25.10
2022-09-05T20:33:44.409Z,22.80
2022-09-05T20:43:09.785Z,22.90
2022-09-05T20:43:22.131Z,24.30
2022-09-05T20:44:22.821Z,22.80
2022-09-05T20:54:08.737Z,23.10
2022-09-05T20:54:25.002Z,22.60
2022-09-05T20:54:41.950Z,24.80
2022-09-05T20:57:44.978Z,24.20
2022-09-05T21:01:20.959Z,25.00
2022-09-05T21:04:11.067Z,24.50
2022-09-05T21:07:19.446Z,25.00
2022-09-05T21:10:27.194Z,24.30
2022-09-05T21:13:38.357Z,22.50
2022-09-05T21:17:09.628Z,22.30
2022-09-05T21:20:23.278Z,23.60
2022-09-05T21:23:33.101Z,22.50
2022-09-05T21:26:34.840Z,24.30
2022-09-05T21:29:36.859Z,22.00
2022-09-05T21:32:41.573Z,24.40
2022-09-05T21:35:45.510Z,22.80
2022-09-05T21:38:47.139Z,23.60
2022-09-05T21:41:53.263Z,22.70
2022-09-05T21:47:48.685Z,23.40
2022-09-05T21:48:34.449Z,22.20
2022-09-05T21:51:37.429Z,21.20
2022-09-05T21:59:16.566Z,22.90
2022-09-05T21:59:22.715Z,23.90
2022-09-05T22:01:51.431Z,21.70
2022-09-05T22:04:54.001Z,21.80
2022-09-05T22:07:56.042Z,21.40
2022-09-05T22:10:57.914Z,21.50
2022-09-05T22:13:59.590Z,23.20
2022-09-05T22:17:03.743Z,23.70
2022-09-05T22:20:08.411Z,23.70
2022-09-05T22:23:11.131Z,21.60
2022-09-05T22:26:15.172Z,21.00
2022-09-05T22:29:16.776Z,21.00
2022-09-05T22:32:25.895Z,21.00
2022-09-05T22:35:39.098Z,21.00
2022-09-05T22:38:43.357Z,23.30
2022-09-05T22:41:45.000Z,23.70
2022-09-05T22:44:48.025Z,23.70
2022-09-05T22:47:49.590Z,20.80
2022-09-05T22:50:51.653Z,23.40
2022-09-05T22:53:53.243Z,22.80
2022-09-05T22:56:54.890Z,23.30
2022-09-05T22:59:56.678Z,23.00
2022-09-05T23:03:00.050Z,23.50
2022-09-05T23:06:04.148Z,23.80
2022-09-05T23:09:05.843Z,20.60
2022-09-05T23:12:07.845Z,22.90
2022-09-05T23:15:09.976Z,21.40
2022-09-05T23:18:11.996Z,21.50
2022-09-05T23:21:16.803Z,22.70
2022-09-05T23:24:18.441Z,23.60
2022-09-05T23:27:20.059Z,23.70
2022-09-05T23:30:21.698Z,23.40
2022-09-05T23:33:23.343Z,23.10
2022-09-05T23:36:25.038Z,23.10
2022-09-05T23:39:26.911Z,23.30
2022-09-05T23:42:28.551Z,23.90
2022-09-05T23:45:30.746Z,23.80
2022-09-05T23:48:32.622Z,23.10
2022-09-05T23:51:34.313Z,23.20
2022-09-05T23:54:35.920Z,23.00
2022-09-05T23:57:37.679Z,23.00
